aviador You're here:

GMMW Decoded Metar

ARWI in MOROCCO
Report Time2018-06-18 15:00:00
UTC Time2018-06-18 15:31:45
Flight Rules vfr VFR
Wind020° at 10 kt
W.Decomp.*RWY 08: 5.2 kt HW 8.6 kt LCW
W.Rank020° ranks 22
Current wind is above 020° avg. (5.5)
Visibility9999 m
Phenomena:N/A
Clouds:N/A
Expected CloudBase > 3,200 ft AGL from Temp-Dew spread
CeilingNone
Temp25°C (ISA +11)
Dew Point17°C (61% RH)
AAT23.8°C
QNH1017 hPa
Density Alt1,988 ft
Elevation574 ft
Report Wrong Elevation
Raw Report
GMMW 181500Z 02010KT CAVOK 25/17 Q1017 NOSIG=

Extra information for GMMW:More info

Metar Taf Metar & Taf Last 4 Metars F.Rules Stats Wind Profile Meteogram Temp Stats Airport Information Weather charts Add Link Nearby VenuesMetar ALERT Operation Metar Decoded Social comments